createdAt,value
2022-11-21T00:04:02.621Z,94823.00
2022-11-21T00:08:05.866Z,94812.00
2022-11-21T00:12:08.677Z,94823.00
2022-11-21T00:16:13.825Z,94820.00
2022-11-21T00:20:19.248Z,94820.00
2022-11-21T00:24:21.963Z,94820.00
2022-11-21T00:28:24.665Z,94815.00
2022-11-21T00:32:27.458Z,94822.00
2022-11-21T00:36:31.562Z,94814.00
2022-11-21T00:40:34.364Z,94813.00
2022-11-21T00:44:37.073Z,94799.00
2022-11-21T00:48:39.797Z,94794.00
2022-11-21T00:52:43.869Z,94796.00
2022-11-21T00:56:46.611Z,94790.00
2022-11-21T01:00:49.382Z,94785.00
2022-11-21T01:04:52.153Z,94795.00
2022-11-21T01:08:56.222Z,94795.00
2022-11-21T01:12:59.064Z,94794.00
2022-11-21T01:17:01.884Z,94797.00
2022-11-21T01:21:06.095Z,94796.00
2022-11-21T01:25:10.757Z,94796.00
2022-11-21T01:29:13.580Z,94792.00
2022-11-21T01:33:16.317Z,94785.00
2022-11-21T01:37:19.039Z,94785.00
2022-11-21T01:41:26.786Z,94778.00
2022-11-21T01:45:55.000Z,94789.00
2022-11-21T01:49:57.847Z,94776.00
2022-11-21T01:54:03.653Z,94757.00
2022-11-21T01:58:07.795Z,94763.00
2022-11-21T02:02:14.529Z,94744.00
2022-11-21T02:06:17.441Z,94746.00
2022-11-21T02:10:20.469Z,94744.00
2022-11-21T02:14:25.307Z,94753.00
2022-11-21T02:18:28.275Z,94752.00
2022-11-21T02:22:37.844Z,94746.00
2022-11-21T02:26:43.117Z,94733.00
2022-11-21T02:30:45.939Z,94731.00
2022-11-21T02:34:48.647Z,94727.00
2022-11-21T02:38:51.434Z,94734.00
2022-11-21T02:43:02.293Z,94723.00
2022-11-21T02:47:05.194Z,94721.00
2022-11-21T02:51:07.916Z,94713.00
2022-11-21T02:55:11.606Z,94712.00
2022-11-21T02:59:15.632Z,94705.00
2022-11-21T03:03:18.350Z,94700.00
2022-11-21T03:07:21.151Z,94689.00
2022-11-21T03:11:23.873Z,94678.00
2022-11-21T03:15:29.224Z,94677.00
2022-11-21T03:19:32.030Z,94666.00
2022-11-21T03:23:34.701Z,94669.00
2022-11-21T03:27:37.421Z,94675.00
2022-11-21T03:31:41.629Z,94670.00
2022-11-21T03:35:44.368Z,94659.00
2022-11-21T03:39:47.127Z,94660.00
2022-11-21T03:43:49.795Z,94649.00
2022-11-21T03:47:53.856Z,94648.00
2022-11-21T03:51:56.685Z,94648.00
2022-11-21T03:55:59.382Z,94645.00
2022-11-21T04:00:02.084Z,94647.00
2022-11-21T04:04:08.808Z,94659.00
2022-11-21T04:08:11.667Z,94652.00
2022-11-21T04:12:14.377Z,94647.00
2022-11-21T04:16:17.144Z,94654.00
2022-11-21T04:20:21.315Z,94650.00
2022-11-21T04:24:24.163Z,94652.00
2022-11-21T04:28:27.111Z,94652.00
2022-11-21T04:32:29.841Z,94656.00
2022-11-21T04:36:34.038Z,94658.00
2022-11-21T04:40:37.001Z,94641.00
2022-11-21T04:44:39.718Z,94644.00
2022-11-21T04:48:42.438Z,94610.00
2022-11-21T04:52:52.010Z,94614.00
2022-11-21T04:56:54.791Z,94597.00
2022-11-21T05:00:57.708Z,94595.00
2022-11-21T05:05:00.498Z,94593.00
2022-11-21T05:09:04.597Z,94593.00
2022-11-21T05:13:22.275Z,94587.00
2022-11-21T05:17:24.986Z,94588.00
2022-11-21T05:21:27.749Z,94591.00
2022-11-21T05:25:31.875Z,94595.00
2022-11-21T05:29:34.582Z,94594.00
2022-11-21T05:33:37.286Z,94585.00
2022-11-21T05:37:40.031Z,94595.00
2022-11-21T05:41:44.077Z,94589.00
2022-11-21T05:45:46.803Z,94604.00
2022-11-21T05:49:49.533Z,94591.00
2022-11-21T05:53:52.272Z,94601.00
2022-11-21T05:57:59.722Z,94602.00
2022-11-21T06:02:19.900Z,94601.00
2022-11-21T06:06:25.022Z,94613.00
2022-11-21T06:10:27.883Z,94616.00
2022-11-21T06:14:31.931Z,94615.00
2022-11-21T06:18:36.375Z,94609.00
2022-11-21T06:22:39.083Z,94627.00
2022-11-21T06:26:41.790Z,94620.00
2022-11-21T06:30:46.253Z,94621.00
2022-11-21T06:34:48.958Z,94619.00
2022-11-21T06:38:53.753Z,94614.00
2022-11-21T06:42:57.536Z,94637.00
2022-11-21T06:47:01.686Z,94633.00
2022-11-21T06:51:09.062Z,94646.00
2022-11-21T06:55:12.360Z,94654.00
2022-11-21T06:59:15.220Z,94643.00
2022-11-21T07:03:19.373Z,94650.00
2022-11-21T07:07:22.193Z,94656.00
2022-11-21T07:11:25.666Z,94668.00
2022-11-21T07:15:28.580Z,94657.00
2022-11-21T07:19:34.585Z,94667.00
2022-11-21T07:23:40.362Z,94668.00
2022-11-21T07:27:43.156Z,94673.00
2022-11-21T07:31:45.891Z,94676.00
2022-11-21T07:35:50.013Z,94682.00
2022-11-21T07:39:52.897Z,94674.00
2022-11-21T07:43:55.585Z,94680.00
2022-11-21T07:47:59.381Z,94690.00
2022-11-21T07:52:03.481Z,94699.00
2022-11-21T07:56:09.363Z,94692.00
2022-11-21T08:00:13.188Z,94690.00
2022-11-21T08:04:15.985Z,94698.00
2022-11-21T08:08:19.958Z,94690.00
2022-11-21T08:12:22.783Z,94692.00
2022-11-21T08:16:27.941Z,94698.00
2022-11-21T08:20:30.643Z,94697.00
2022-11-21T08:24:34.809Z,94706.00
2022-11-21T08:28:37.829Z,94711.00
2022-11-21T08:32:40.555Z,94707.00
2022-11-21T08:36:43.242Z,94705.00
2022-11-21T08:40:47.299Z,94704.00
2022-11-21T08:44:50.026Z,94702.00
2022-11-21T08:48:52.730Z,94702.00
2022-11-21T08:53:01.169Z,94701.00
2022-11-21T08:57:05.396Z,94701.00
2022-11-21T09:01:10.061Z,94688.00
2022-11-21T09:05:14.817Z,94695.00
2022-11-21T09:09:23.789Z,94696.00
2022-11-21T09:13:29.285Z,94690.00
2022-11-21T09:17:49.579Z,94689.00
2022-11-21T09:21:52.908Z,94701.00
2022-11-21T09:25:56.159Z,94699.00
2022-11-21T09:30:00.288Z,94694.00
2022-11-21T09:34:02.982Z,94697.00
2022-11-21T09:38:06.126Z,94709.00
2022-11-21T09:42:33.790Z,94718.00
2022-11-21T09:46:46.049Z,94707.00
2022-11-21T09:50:53.985Z,94708.00
2022-11-21T09:55:02.486Z,94711.00
2022-11-21T09:59:13.772Z,94697.00
2022-11-21T10:03:22.129Z,94700.00
2022-11-21T10:07:28.124Z,94689.00
2022-11-21T10:11:58.374Z,94696.00
2022-11-21T10:16:07.398Z,94690.00
2022-11-21T10:20:23.399Z,94669.00
2022-11-21T10:24:41.649Z,94658.00
2022-11-21T10:28:51.817Z,94649.00
2022-11-21T10:32:57.669Z,94644.00
2022-11-21T10:37:11.783Z,94642.00
2022-11-21T10:41:19.298Z,94657.00
2022-11-21T10:45:22.924Z,94652.00
2022-11-21T10:49:27.175Z,94642.00
2022-11-21T10:53:49.791Z,94638.00
2022-11-21T10:57:54.857Z,94639.00
2022-11-21T11:02:00.142Z,94629.00
2022-11-21T11:06:02.863Z,94616.00
2022-11-21T11:10:26.885Z,94619.00
2022-11-21T11:14:33.178Z,94606.00
2022-11-21T11:18:38.609Z,94594.00
2022-11-21T11:22:41.361Z,94595.00
2022-11-21T11:26:56.297Z,94587.00
2022-11-21T11:30:59.201Z,94587.00
2022-11-21T11:35:09.344Z,94568.00
2022-11-21T11:39:20.629Z,94570.00
2022-11-21T11:43:50.799Z,94556.00
2022-11-21T11:47:56.907Z,94571.00
2022-11-21T11:52:04.932Z,94561.00
2022-11-21T11:56:13.767Z,94552.00
2022-11-21T12:00:27.185Z,94560.00
2022-11-21T12:04:33.428Z,94556.00
2022-11-21T12:08:43.148Z,94540.00
2022-11-21T12:12:50.015Z,94541.00
2022-11-21T12:16:54.261Z,94533.00
2022-11-21T12:21:04.833Z,94517.00
2022-11-21T12:25:12.227Z,94502.00
2022-11-21T12:29:30.037Z,94487.00
2022-11-21T12:33:42.097Z,94497.00
2022-11-21T12:37:52.871Z,94486.00
2022-11-21T12:42:18.319Z,94479.00
2022-11-21T12:46:26.605Z,94485.00
2022-11-21T12:50:55.284Z,94469.00
2022-11-21T12:55:10.793Z,94466.00
2022-11-21T12:59:16.085Z,94466.00
2022-11-21T13:03:30.784Z,94453.00
2022-11-21T13:07:37.226Z,94458.00
2022-11-21T13:12:01.754Z,94450.00
2022-11-21T13:16:11.495Z,94438.00
2022-11-21T13:20:21.900Z,94443.00
2022-11-21T13:24:58.024Z,94444.00
2022-11-21T13:29:09.370Z,94440.00
2022-11-21T13:33:32.754Z,94421.00
2022-11-21T13:38:01.658Z,94428.00
2022-11-21T13:42:40.752Z,94403.00
2022-11-21T13:46:58.674Z,94404.00
2022-11-21T13:51:42.425Z,94409.00
2022-11-21T13:55:57.938Z,94394.00
2022-11-21T14:00:20.336Z,94379.00
2022-11-21T14:04:39.570Z,94369.00
2022-11-21T14:08:43.735Z,94372.00
2022-11-21T14:12:49.992Z,94365.00
2022-11-21T14:17:01.673Z,94369.00
2022-11-21T14:21:08.192Z,94366.00
2022-11-21T14:25:17.662Z,94365.00
2022-11-21T14:29:22.588Z,94359.00
2022-11-21T14:33:29.446Z,94347.00
2022-11-21T14:37:32.950Z,94347.00
2022-11-21T14:41:38.038Z,94340.00
2022-11-21T14:45:50.214Z,94330.00
2022-11-21T14:49:55.618Z,94324.00
2022-11-21T14:53:58.364Z,94313.00
2022-11-21T14:58:03.244Z,94306.00
2022-11-21T15:02:12.957Z,94297.00
2022-11-21T15:06:17.017Z,94284.00
2022-11-21T15:10:29.124Z,94281.00
2022-11-21T15:14:37.174Z,94270.00
2022-11-21T15:18:42.658Z,94260.00
2022-11-21T15:22:48.643Z,94250.00
2022-11-21T15:26:51.420Z,94239.00
2022-11-21T15:31:16.913Z,94236.00
2022-11-21T15:35:32.156Z,94232.00
2022-11-21T15:39:37.882Z,94223.00
2022-11-21T15:43:43.211Z,94218.00
2022-11-21T15:47:47.014Z,94216.00
2022-11-21T15:56:22.793Z,94196.00
2022-11-21T15:57:12.591Z,94207.00
2022-11-21T16:00:25.901Z,94194.00
2022-11-21T16:04:28.726Z,94193.00
2022-11-21T16:08:31.752Z,94172.00
2022-11-21T16:12:35.924Z,94172.00
2022-11-21T16:16:43.221Z,94170.00
2022-11-21T16:20:46.476Z,94171.00
2022-11-21T16:24:49.559Z,94159.00
2022-11-21T16:28:54.512Z,94153.00
2022-11-21T16:32:57.225Z,94138.00
2022-11-21T16:37:05.829Z,94125.00
2022-11-21T16:41:09.977Z,94131.00
2022-11-21T16:45:14.053Z,94113.00
2022-11-21T16:49:16.929Z,94105.00
2022-11-21T16:53:19.674Z,94089.00
2022-11-21T16:57:22.381Z,94091.00
2022-11-21T17:01:28.078Z,94087.00
2022-11-21T17:05:31.001Z,94086.00
2022-11-21T17:09:33.712Z,94075.00
2022-11-21T17:13:36.456Z,94076.00
2022-11-21T17:17:41.575Z,94060.00
2022-11-21T17:21:44.330Z,94059.00
2022-11-21T17:25:47.085Z,94033.00
2022-11-21T17:29:49.817Z,94032.00
2022-11-21T17:33:54.667Z,94024.00
2022-11-21T17:37:57.431Z,94029.00
2022-11-21T17:42:01.384Z,94012.00
2022-11-21T17:46:09.675Z,94003.00
2022-11-21T17:50:14.851Z,94004.00
2022-11-21T17:54:17.542Z,93995.00
2022-11-21T17:58:20.283Z,93998.00
2022-11-21T18:02:23.184Z,93990.00
2022-11-21T18:06:29.259Z,93991.00
2022-11-21T18:10:47.421Z,93988.00
2022-11-21T18:14:50.424Z,93965.00
2022-11-21T18:18:53.294Z,93958.00
2022-11-21T18:22:57.366Z,93957.00
2022-11-21T18:27:00.089Z,93956.00
2022-11-21T18:31:07.818Z,93963.00
2022-11-21T18:35:10.553Z,93938.00
2022-11-21T18:39:27.274Z,93931.00
2022-11-21T18:43:30.173Z,93910.00
2022-11-21T18:47:32.944Z,93906.00
2022-11-21T18:51:37.046Z,93887.00
2022-11-21T18:55:41.179Z,93860.00
2022-11-21T18:59:44.044Z,93870.00
2022-11-21T19:03:47.694Z,93854.00
2022-11-21T19:07:53.239Z,93854.00
2022-11-21T19:11:57.365Z,93866.00
2022-11-21T19:16:02.077Z,93858.00
2022-11-21T19:20:05.395Z,93843.00
2022-11-21T19:24:12.952Z,93822.00
2022-11-21T19:28:17.059Z,93797.00
2022-11-21T19:32:19.781Z,93798.00
2022-11-21T19:36:24.575Z,93783.00
2022-11-21T19:40:47.610Z,93766.00
2022-11-21T19:44:51.723Z,93762.00
2022-11-21T19:48:56.037Z,93777.00
2022-11-21T19:52:58.934Z,93790.00
2022-11-21T19:57:01.760Z,93795.00
2022-11-21T20:01:11.000Z,93777.00
2022-11-21T20:05:15.736Z,93764.00
2022-11-21T20:09:20.255Z,93777.00
2022-11-21T20:13:23.064Z,93762.00
2022-11-21T20:17:27.190Z,93745.00
2022-11-21T20:21:30.206Z,93756.00
2022-11-21T20:25:32.958Z,93750.00
2022-11-21T20:29:37.490Z,93750.00
2022-11-21T20:33:43.692Z,93745.00
2022-11-21T20:37:47.424Z,93732.00
2022-11-21T20:41:50.221Z,93733.00
2022-11-21T20:46:12.915Z,93736.00
2022-11-21T20:50:50.071Z,93734.00
2022-11-21T20:54:41.773Z,93719.00
2022-11-21T20:58:45.486Z,93726.00
2022-11-21T21:02:48.274Z,93715.00
2022-11-21T21:06:52.333Z,93712.00
2022-11-21T21:11:06.824Z,93704.00
2022-11-21T21:15:10.470Z,93705.00
2022-11-21T21:19:13.188Z,93701.00
2022-11-21T21:23:17.238Z,93700.00
2022-11-21T21:27:20.245Z,93701.00
2022-11-21T21:31:23.982Z,93695.00
2022-11-21T21:35:27.011Z,93697.00
2022-11-21T21:39:31.154Z,93711.00
2022-11-21T21:43:34.358Z,93708.00
2022-11-21T21:47:39.228Z,93721.00
2022-11-21T21:51:43.153Z,93729.00
2022-11-21T21:55:47.216Z,93722.00
2022-11-21T21:59:49.937Z,93705.00
2022-11-21T22:03:54.534Z,93695.00
2022-11-21T22:07:59.069Z,93688.00
2022-11-21T22:12:03.130Z,93680.00
2022-11-21T22:16:07.763Z,93686.00
2022-11-21T22:20:11.236Z,93687.00
2022-11-21T22:24:30.787Z,93677.00
2022-11-21T22:28:34.963Z,93679.00
2022-11-21T22:32:37.722Z,93702.00
2022-11-21T22:36:41.424Z,93761.00
2022-11-21T22:40:44.493Z,93745.00
2022-11-21T22:44:48.528Z,93750.00
2022-11-21T22:48:51.233Z,93729.00
2022-11-21T22:52:53.926Z,93722.00
2022-11-21T22:56:56.682Z,93713.00
2022-11-21T23:01:06.864Z,93720.00
2022-11-21T23:05:10.026Z,93713.00
2022-11-21T23:09:12.713Z,93720.00
2022-11-21T23:13:15.433Z,93724.00
2022-11-21T23:17:20.343Z,93724.00
2022-11-21T23:21:23.395Z,93694.00
2022-11-21T23:25:26.377Z,93709.00
2022-11-21T23:29:29.357Z,93705.00
2022-11-21T23:33:33.588Z,93697.00
2022-11-21T23:37:36.289Z,93696.00
2022-11-21T23:41:39.005Z,93703.00
2022-11-21T23:45:41.829Z,93716.00
2022-11-21T23:49:50.023Z,93720.00
2022-11-21T23:53:52.954Z,93720.00
2022-11-21T23:57:55.651Z,93723.00
